createdAt,value
2019-02-27T00:00:09.121Z,5.93
2019-02-27T00:01:42.068Z,5.91
2019-02-27T00:03:15.949Z,5.91
2019-02-27T00:04:50.117Z,5.91
2019-02-27T00:06:24.272Z,5.93
2019-02-27T00:07:58.467Z,5.92
2019-02-27T00:09:35.354Z,5.90
2019-02-27T00:11:09.980Z,5.85
2019-02-27T00:12:43.850Z,5.84
2019-02-27T00:14:17.770Z,5.82
2019-02-27T00:15:51.982Z,5.82
2019-02-27T00:17:26.818Z,5.81
2019-02-27T00:19:00.815Z,5.83
2019-02-27T00:20:36.671Z,5.82
2019-02-27T00:22:09.028Z,5.76
2019-02-27T00:23:43.237Z,5.81
2019-02-27T00:25:17.529Z,5.84
2019-02-27T00:26:51.245Z,5.83
2019-02-27T00:28:25.436Z,5.81
2019-02-27T00:30:04.656Z,5.83
2019-02-27T00:31:35.408Z,5.83
2019-02-27T00:33:09.514Z,5.86
2019-02-27T00:34:43.425Z,5.87
2019-02-27T00:36:18.049Z,5.87
2019-02-27T00:37:52.636Z,5.89
2019-02-27T00:39:26.356Z,5.96
2019-02-27T00:41:01.278Z,5.98
2019-02-27T00:42:36.287Z,5.99
2019-02-27T00:44:10.223Z,6.03
2019-02-27T00:45:43.947Z,6.03
2019-02-27T00:47:20.187Z,6.03
2019-02-27T00:48:52.166Z,6.04
2019-02-27T00:50:26.421Z,6.02
2019-02-27T00:52:00.421Z,6.06
2019-02-27T00:53:34.548Z,6.06
2019-02-27T00:55:08.755Z,6.07
2019-02-27T00:57:45.517Z,6.06
2019-02-27T00:59:20.460Z,6.13
2019-02-27T01:00:54.246Z,6.11
2019-02-27T01:02:28.180Z,6.09
2019-02-27T01:04:03.296Z,6.13
2019-02-27T01:05:40.969Z,6.14
2019-02-27T01:07:11.202Z,6.12
2019-02-27T01:08:45.409Z,6.08
2019-02-27T01:10:20.232Z,6.07
2019-02-27T01:11:54.236Z,6.06
2019-02-27T01:13:28.900Z,6.11
2019-02-27T01:15:02.479Z,6.11
2019-02-27T01:16:36.454Z,6.11
2019-02-27T01:18:11.280Z,6.07
2019-02-27T01:19:45.682Z,6.06
2019-02-27T01:21:20.108Z,6.08
2019-02-27T01:22:54.047Z,6.06
2019-02-27T01:24:28.162Z,6.05
2019-02-27T01:26:02.315Z,6.03
2019-02-27T01:27:37.890Z,5.99
2019-02-27T01:29:09.394Z,6.01
2019-02-27T01:30:43.526Z,6.02
2019-02-27T01:32:17.614Z,6.04
2019-02-27T01:33:51.641Z,6.03
2019-02-27T01:35:26.661Z,6.01
2019-02-27T01:37:00.774Z,5.97
2019-02-27T01:41:11.636Z,5.89
2019-02-27T01:42:45.869Z,5.89
2019-02-27T01:44:20.386Z,5.86
2019-02-27T01:45:55.041Z,5.87
2019-02-27T01:47:28.802Z,5.83
2019-02-27T01:49:03.315Z,5.76
2019-02-27T01:50:48.629Z,5.76
2019-02-27T01:52:23.000Z,5.78
2019-02-27T01:53:56.990Z,5.69
2019-02-27T01:55:30.994Z,5.68
2019-02-27T01:57:05.034Z,5.65
2019-02-27T01:58:43.433Z,5.61
2019-02-27T02:00:13.336Z,5.56
2019-02-27T02:01:47.646Z,5.58
2019-02-27T02:03:21.725Z,5.52
2019-02-27T02:04:55.863Z,5.53
2019-02-27T02:06:31.941Z,5.53
2019-02-27T02:08:04.728Z,5.55
2019-02-27T02:09:48.090Z,5.54
2019-02-27T02:11:22.012Z,5.52
2019-02-27T02:12:57.454Z,5.51
2019-02-27T02:14:45.179Z,5.53
2019-02-27T02:17:05.070Z,5.48
2019-02-27T02:19:21.969Z,5.48
2019-02-27T02:21:18.924Z,5.44
2019-02-27T02:23:13.994Z,5.36
2019-02-27T02:25:35.476Z,5.34
2019-02-27T02:27:21.623Z,5.37
2019-02-27T02:29:22.247Z,5.34
2019-02-27T02:32:17.515Z,5.33
2019-02-27T02:34:05.196Z,5.31
2019-02-27T02:36:00.171Z,5.27
2019-02-27T02:37:45.757Z,5.24
2019-02-27T02:39:54.167Z,5.25
2019-02-27T02:42:06.452Z,5.19
2019-02-27T02:43:55.864Z,5.18
2019-02-27T02:45:44.077Z,5.18
2019-02-27T02:47:28.124Z,5.19
2019-02-27T02:49:20.450Z,5.17
2019-02-27T02:51:08.694Z,5.11
2019-02-27T02:53:06.046Z,5.11
2019-02-27T02:54:52.645Z,5.09
2019-02-27T02:56:35.055Z,5.06
2019-02-27T02:58:24.031Z,5.02
2019-02-27T03:00:39.093Z,5.01
2019-02-27T03:02:23.540Z,5.00
2019-02-27T03:04:12.453Z,4.96
2019-02-27T03:06:52.616Z,4.96
2019-02-27T03:08:36.077Z,4.93
2019-02-27T03:10:43.056Z,4.93
2019-02-27T03:14:53.332Z,4.83
2019-02-27T03:17:35.096Z,4.87
2019-02-27T03:19:41.201Z,4.88
2019-02-27T03:21:27.509Z,4.86
2019-02-27T03:23:16.691Z,4.84
2019-02-27T03:27:12.753Z,4.81
2019-02-27T03:29:57.718Z,4.77
2019-02-27T03:31:57.703Z,4.74
2019-02-27T03:34:35.634Z,4.73
2019-02-27T03:36:58.698Z,4.69
2019-02-27T03:39:57.787Z,4.74
2019-02-27T03:41:46.203Z,4.68
2019-02-27T03:43:33.958Z,4.70
2019-02-27T03:45:19.316Z,4.69
2019-02-27T03:47:03.465Z,4.59
2019-02-27T03:48:48.929Z,4.62
2019-02-27T03:52:37.814Z,4.61
2019-02-27T03:54:21.295Z,4.50
2019-02-27T03:58:10.118Z,4.55
2019-02-27T04:00:03.359Z,4.55
2019-02-27T04:02:05.891Z,4.49
2019-02-27T04:03:54.197Z,4.51
2019-02-27T04:06:02.590Z,4.51
2019-02-27T04:09:45.090Z,4.50
2019-02-27T04:11:20.138Z,4.49
2019-02-27T04:12:54.188Z,4.51
2019-02-27T04:14:42.379Z,4.45
2019-02-27T04:16:16.465Z,4.49
2019-02-27T04:17:53.113Z,4.45
2019-02-27T04:19:27.364Z,4.42
2019-02-27T04:21:02.593Z,4.39
2019-02-27T04:22:37.599Z,4.35
2019-02-27T04:24:10.702Z,4.35
2019-02-27T04:25:44.998Z,4.35
2019-02-27T04:27:21.234Z,4.37
2019-02-27T04:28:54.134Z,4.34
2019-02-27T04:30:29.607Z,4.35
2019-02-27T04:32:03.516Z,4.36
2019-02-27T04:33:37.708Z,4.35
2019-02-27T04:35:11.509Z,4.34
2019-02-27T04:36:47.160Z,4.37
2019-02-27T04:38:19.543Z,4.37
2019-02-27T04:39:53.520Z,4.37
2019-02-27T04:41:27.830Z,4.38
2019-02-27T04:43:02.732Z,4.38
2019-02-27T04:44:38.887Z,4.36
2019-02-27T04:46:11.786Z,4.34
2019-02-27T04:47:45.263Z,4.25
2019-02-27T04:49:19.387Z,4.23
2019-02-27T04:50:53.494Z,4.22
2019-02-27T04:52:28.322Z,4.21
2019-02-27T04:54:06.357Z,4.23
2019-02-27T04:55:37.037Z,4.22
2019-02-27T04:57:12.075Z,4.17
2019-02-27T04:58:46.126Z,4.12
2019-02-27T05:00:20.680Z,4.10
2019-02-27T05:01:54.821Z,4.07
2019-02-27T05:03:29.627Z,4.04
2019-02-27T05:05:06.238Z,4.07
2019-02-27T05:06:37.945Z,4.01
2019-02-27T05:08:12.011Z,4.07
2019-02-27T05:09:46.455Z,4.08
2019-02-27T05:11:20.256Z,3.99
2019-02-27T05:12:54.475Z,4.06
2019-02-27T05:14:28.492Z,4.01
2019-02-27T05:16:02.896Z,4.01
2019-02-27T05:17:38.228Z,4.01
2019-02-27T05:19:11.930Z,4.05
2019-02-27T05:20:46.143Z,4.04
2019-02-27T05:22:20.456Z,3.99
2019-02-27T05:23:54.355Z,4.00
2019-02-27T05:25:28.355Z,3.99
2019-02-27T05:27:02.451Z,3.97
2019-02-27T05:28:36.763Z,3.95
2019-02-27T05:30:12.301Z,3.92
2019-02-27T05:31:44.786Z,3.92
2019-02-27T05:33:18.993Z,3.90
2019-02-27T05:34:53.308Z,3.84
2019-02-27T05:36:29.032Z,3.86
2019-02-27T05:38:02.479Z,3.83
2019-02-27T05:39:36.430Z,3.82
2019-02-27T05:41:10.863Z,3.77
2019-02-27T05:42:44.882Z,3.72
2019-02-27T05:44:21.425Z,3.71
2019-02-27T05:45:53.398Z,3.72
2019-02-27T05:47:27.596Z,3.72
2019-02-27T05:49:02.351Z,3.70
2019-02-27T05:50:36.389Z,3.69
2019-02-27T05:52:11.856Z,3.70
2019-02-27T05:53:44.741Z,3.67
2019-02-27T05:55:18.548Z,3.66
2019-02-27T05:56:52.534Z,3.63
2019-02-27T05:58:26.654Z,3.60
2019-02-27T06:00:02.773Z,3.62
2019-02-27T06:01:37.737Z,3.68
2019-02-27T06:03:08.974Z,3.73
2019-02-27T06:04:43.184Z,3.77
2019-02-27T06:06:17.393Z,3.75
2019-02-27T06:07:51.557Z,3.74
2019-02-27T06:09:25.513Z,3.76
2019-02-27T06:10:59.515Z,3.77
2019-02-27T06:12:33.822Z,3.77
2019-02-27T06:14:08.339Z,3.79
2019-02-27T06:15:42.775Z,3.80
2019-02-27T06:17:16.672Z,3.76
2019-02-27T06:18:50.876Z,3.79
2019-02-27T06:20:24.785Z,3.81
2019-02-27T06:21:59.695Z,3.76
2019-02-27T06:23:35.414Z,3.76
2019-02-27T06:25:08.217Z,3.78
2019-02-27T06:26:42.343Z,3.80
2019-02-27T06:28:18.499Z,3.77
2019-02-27T06:29:50.743Z,3.77
2019-02-27T06:31:24.956Z,3.77
2019-02-27T06:32:59.364Z,3.79
2019-02-27T06:34:33.371Z,3.78
2019-02-27T06:36:07.922Z,3.78
2019-02-27T06:37:41.466Z,3.80
2019-02-27T06:39:15.592Z,3.83
2019-02-27T06:40:49.473Z,3.79
2019-02-27T06:42:23.668Z,3.86
2019-02-27T06:43:58.917Z,3.93
2019-02-27T06:45:33.897Z,3.92
2019-02-27T06:47:08.082Z,3.97
2019-02-27T06:48:43.472Z,4.01
2019-02-27T06:50:15.989Z,4.00
2019-02-27T06:51:49.879Z,3.98
2019-02-27T06:53:23.885Z,4.04
2019-02-27T06:54:58.202Z,4.07
2019-02-27T06:56:32.125Z,4.08
2019-02-27T06:58:05.991Z,4.05
2019-02-27T06:59:40.010Z,4.01
2019-02-27T07:01:45.059Z,4.04
2019-02-27T07:03:20.554Z,3.99
2019-02-27T07:04:54.783Z,4.03
2019-02-27T07:06:28.595Z,4.08
2019-02-27T07:08:05.094Z,4.07
2019-02-27T07:09:38.552Z,4.08
2019-02-27T07:11:14.272Z,4.07
2019-02-27T07:12:48.106Z,4.09
2019-02-27T07:14:21.990Z,4.10
2019-02-27T07:15:56.134Z,4.11
2019-02-27T07:17:31.721Z,4.15
2019-02-27T07:19:04.067Z,4.18
2019-02-27T07:20:39.242Z,4.16
2019-02-27T07:22:14.066Z,4.12
2019-02-27T07:23:48.104Z,4.10
2019-02-27T07:25:23.415Z,4.15
2019-02-27T07:26:57.515Z,4.14
2019-02-27T07:28:31.523Z,4.17
2019-02-27T07:30:07.460Z,4.22
2019-02-27T07:31:40.974Z,4.26
2019-02-27T07:33:15.873Z,4.28
2019-02-27T07:34:50.408Z,4.34
2019-02-27T07:36:23.895Z,4.34
2019-02-27T07:37:57.785Z,4.38
2019-02-27T07:39:34.144Z,4.37
2019-02-27T07:41:08.675Z,4.36
2019-02-27T07:42:43.303Z,4.27
2019-02-27T07:44:17.668Z,4.31
2019-02-27T07:45:51.613Z,4.33
2019-02-27T07:47:26.436Z,4.38
2019-02-27T07:49:01.555Z,4.36
2019-02-27T07:50:35.879Z,4.40
2019-02-27T07:52:12.972Z,4.40
2019-02-27T07:53:47.600Z,4.37
2019-02-27T07:57:23.870Z,4.36
2019-02-27T07:58:58.374Z,4.30
2019-02-27T08:00:35.334Z,4.32
2019-02-27T08:02:09.696Z,4.32
2019-02-27T08:03:45.546Z,4.36
2019-02-27T08:05:18.484Z,4.41
2019-02-27T08:09:00.581Z,4.44
2019-02-27T08:10:36.996Z,4.49
2019-02-27T08:12:10.585Z,4.45
2019-02-27T08:13:45.571Z,4.51
2019-02-27T08:15:19.358Z,4.55
2019-02-27T08:16:57.105Z,4.57
2019-02-27T08:18:30.143Z,4.62
2019-02-27T08:20:00.670Z,4.70
2019-02-27T08:21:34.672Z,4.69
2019-02-27T08:23:10.726Z,4.68
2019-02-27T08:24:45.551Z,4.71
2019-02-27T08:26:19.863Z,4.74
2019-02-27T08:27:54.402Z,4.80
2019-02-27T08:29:28.905Z,4.82
2019-02-27T08:31:03.532Z,4.90
2019-02-27T08:32:37.187Z,4.96
2019-02-27T08:34:11.215Z,5.01
2019-02-27T08:35:45.307Z,5.08
2019-02-27T08:37:20.307Z,5.12
2019-02-27T08:38:53.644Z,5.20
2019-02-27T08:40:27.623Z,5.28
2019-02-27T08:42:03.597Z,5.34
2019-02-27T08:43:35.981Z,5.49
2019-02-27T08:45:19.001Z,5.57
2019-02-27T08:46:44.483Z,5.54
2019-02-27T08:48:18.076Z,5.54
2019-02-27T08:49:51.470Z,5.58
2019-02-27T08:51:25.362Z,5.62
2019-02-27T08:53:05.319Z,5.66
2019-02-27T08:54:39.216Z,5.68
2019-02-27T08:56:13.306Z,5.69
2019-02-27T08:57:49.635Z,5.73
2019-02-27T08:59:21.646Z,5.80
2019-02-27T09:00:56.160Z,5.92
2019-02-27T09:02:29.979Z,5.95
2019-02-27T09:04:05.967Z,6.12
2019-02-27T09:05:37.843Z,6.25
2019-02-27T09:07:11.769Z,6.36
2019-02-27T09:08:45.749Z,6.44
2019-02-27T09:10:19.061Z,6.54
2019-02-27T09:11:52.964Z,6.62
2019-02-27T09:13:27.576Z,6.75
2019-02-27T09:15:01.564Z,6.87
2019-02-27T09:16:35.795Z,6.93
2019-02-27T09:18:09.804Z,6.95
2019-02-27T09:19:45.552Z,7.02
2019-02-27T09:21:17.993Z,7.03
2019-02-27T09:22:52.221Z,7.03
2019-02-27T09:24:26.408Z,6.91
2019-02-27T09:26:02.489Z,6.91
2019-02-27T09:27:35.316Z,6.85
2019-02-27T09:29:09.057Z,6.85
2019-02-27T09:30:43.275Z,6.87
2019-02-27T09:32:18.082Z,6.88
2019-02-27T09:33:53.319Z,6.89
2019-02-27T09:35:26.102Z,6.89
2019-02-27T09:36:59.865Z,6.83
2019-02-27T09:38:33.905Z,6.87
2019-02-27T09:40:07.922Z,6.86
2019-02-27T09:41:46.092Z,6.84
2019-02-27T09:43:16.062Z,6.83
2019-02-27T09:44:50.022Z,6.83
2019-02-27T09:46:24.100Z,6.87
2019-02-27T09:47:59.999Z,6.84
2019-02-27T09:49:33.154Z,6.86
2019-02-27T09:51:08.424Z,6.87
2019-02-27T09:52:42.531Z,6.93
2019-02-27T09:54:17.144Z,6.97
2019-02-27T09:55:53.306Z,7.02
2019-02-27T09:57:27.067Z,7.13
2019-02-27T09:58:59.311Z,7.20
2019-02-27T10:00:45.397Z,7.22
2019-02-27T10:02:21.234Z,7.29
2019-02-27T10:03:55.256Z,7.39
2019-02-27T10:05:30.278Z,7.49
2019-02-27T10:07:04.410Z,7.56
2019-02-27T10:08:38.513Z,7.68
2019-02-27T10:10:12.627Z,7.68
2019-02-27T10:11:46.848Z,7.75
2019-02-27T10:13:21.518Z,7.75
2019-02-27T10:14:55.574Z,7.76
2019-02-27T10:16:29.526Z,7.74
2019-02-27T10:18:03.368Z,7.75
2019-02-27T10:19:38.408Z,7.75
2019-02-27T10:21:12.735Z,7.73
2019-02-27T10:22:46.521Z,7.73
2019-02-27T10:24:19.381Z,7.73
2019-02-27T10:25:53.252Z,7.72
2019-02-27T10:27:28.850Z,7.73
2019-02-27T10:29:01.617Z,7.74
2019-02-27T10:30:36.542Z,7.79
2019-02-27T10:32:10.248Z,7.80
2019-02-27T10:33:44.245Z,7.85
2019-02-27T10:35:18.148Z,7.88
2019-02-27T10:36:52.111Z,7.90
2019-02-27T10:38:26.772Z,7.90
2019-02-27T10:40:00.247Z,7.89
2019-02-27T10:41:33.958Z,7.92
2019-02-27T10:43:07.684Z,7.94
2019-02-27T10:44:41.660Z,7.97
2019-02-27T10:46:16.602Z,7.98
2019-02-27T10:47:50.876Z,8.02
2019-02-27T10:49:25.611Z,8.06
2019-02-27T10:51:00.535Z,8.09
2019-02-27T10:52:34.655Z,8.15
2019-02-27T10:54:08.861Z,8.25
2019-02-27T10:55:43.349Z,8.30
2019-02-27T10:57:17.321Z,8.39
2019-02-27T10:58:52.352Z,8.43
2019-02-27T11:00:30.243Z,8.51
2019-02-27T11:02:04.216Z,8.57
2019-02-27T11:03:37.388Z,8.61
2019-02-27T11:05:11.506Z,8.69
2019-02-27T11:06:45.727Z,8.81
2019-02-27T11:08:19.882Z,8.92
2019-02-27T11:09:53.073Z,9.01
2019-02-27T11:11:28.041Z,9.22
2019-02-27T11:13:05.618Z,9.43
2019-02-27T11:14:36.457Z,9.64
2019-02-27T11:16:10.245Z,9.87
2019-02-27T11:17:44.251Z,10.10
2019-02-27T11:19:17.267Z,10.32
2019-02-27T11:20:52.074Z,10.48
2019-02-27T11:22:25.859Z,10.70
2019-02-27T11:24:00.106Z,10.80
2019-02-27T11:25:37.353Z,11.03
2019-02-27T11:27:11.296Z,11.34
2019-02-27T11:28:47.645Z,11.73
2019-02-27T11:30:19.440Z,12.09
2019-02-27T11:31:53.380Z,12.35
2019-02-27T11:33:32.725Z,12.84
2019-02-27T11:35:01.710Z,13.21
2019-02-27T11:36:35.023Z,13.48
2019-02-27T11:38:08.255Z,13.85
2019-02-27T11:39:42.407Z,14.15
2019-02-27T11:41:17.085Z,14.45
2019-02-27T11:42:50.742Z,14.43
2019-02-27T11:44:24.799Z,14.31
2019-02-27T11:45:59.320Z,14.42
2019-02-27T11:47:33.426Z,14.52
2019-02-27T11:49:06.426Z,14.70
2019-02-27T11:50:40.311Z,14.68
2019-02-27T11:52:14.170Z,14.74
2019-02-27T11:53:47.968Z,14.79
2019-02-27T11:55:24.444Z,14.92
2019-02-27T11:56:57.864Z,15.14
2019-02-27T11:58:30.845Z,15.37
2019-02-27T12:00:04.950Z,15.35
2019-02-27T12:01:38.788Z,15.46
2019-02-27T12:03:12.968Z,15.38
2019-02-27T12:04:46.966Z,15.05
2019-02-27T12:06:20.985Z,14.92
2019-02-27T12:07:54.750Z,14.81
2019-02-27T12:09:29.809Z,14.98
2019-02-27T12:11:03.844Z,14.84
2019-02-27T12:12:37.994Z,14.91
2019-02-27T12:14:12.100Z,14.58
2019-02-27T12:15:46.235Z,14.63
2019-02-27T12:17:20.174Z,14.50
2019-02-27T12:20:53.215Z,14.10
2019-02-27T12:22:23.820Z,14.17
2019-02-27T12:23:57.540Z,14.16
2019-02-27T12:25:32.410Z,13.56
2019-02-27T12:27:07.241Z,13.63
2019-02-27T12:28:40.059Z,13.71
2019-02-27T12:30:14.183Z,13.47
2019-02-27T12:31:49.109Z,13.49
2019-02-27T12:33:24.118Z,13.72
2019-02-27T12:34:57.097Z,13.82
2019-02-27T12:36:31.120Z,13.99
2019-02-27T12:38:08.190Z,13.93
2019-02-27T12:39:39.344Z,13.78
2019-02-27T12:41:13.453Z,13.63
2019-02-27T12:42:47.425Z,13.41
2019-02-27T12:44:21.557Z,13.32
2019-02-27T12:45:54.327Z,12.93
2019-02-27T12:47:27.978Z,12.74
2019-02-27T12:49:02.121Z,12.58
2019-02-27T12:50:37.045Z,12.46
2019-02-27T12:52:12.109Z,12.47
2019-02-27T12:53:46.296Z,12.48
2019-02-27T12:55:21.433Z,12.23
2019-02-27T12:56:55.340Z,12.09
2019-02-27T12:58:29.442Z,12.04
2019-02-27T13:00:05.786Z,11.82
2019-02-27T13:01:38.581Z,11.62
2019-02-27T13:03:12.497Z,11.51
2019-02-27T13:04:46.512Z,11.32
2019-02-27T13:06:21.409Z,11.30
2019-02-27T13:07:55.703Z,11.20
2019-02-27T13:09:30.859Z,11.09
2019-02-27T13:11:05.252Z,11.06
2019-02-27T13:12:38.876Z,10.96
2019-02-27T13:14:12.615Z,10.94
2019-02-27T13:15:47.582Z,10.80
2019-02-27T13:17:22.241Z,10.58
2019-02-27T13:18:55.887Z,10.60
2019-02-27T13:20:33.599Z,10.58
2019-02-27T13:22:08.243Z,10.48
2019-02-27T13:23:43.960Z,10.36
2019-02-27T13:25:18.253Z,10.43
2019-02-27T13:26:52.494Z,10.37
2019-02-27T13:28:26.783Z,10.38
2019-02-27T13:30:08.387Z,10.36
2019-02-27T13:31:33.778Z,10.29
2019-02-27T13:33:07.682Z,10.32
2019-02-27T13:34:41.362Z,10.30
2019-02-27T13:36:15.384Z,10.16
2019-02-27T13:37:49.184Z,10.25
2019-02-27T13:39:25.589Z,10.28
2019-02-27T13:40:58.011Z,10.26
2019-02-27T13:42:32.816Z,10.27
2019-02-27T13:44:07.971Z,10.29
2019-02-27T13:45:41.869Z,10.22
2019-02-27T13:47:50.167Z,10.21
2019-02-27T13:49:25.837Z,10.20
2019-02-27T13:52:49.654Z,10.22
2019-02-27T13:54:21.986Z,10.26
2019-02-27T13:55:54.738Z,10.27
2019-02-27T13:57:28.651Z,10.12
2019-02-27T13:59:03.110Z,10.09
2019-02-27T14:00:42.058Z,10.00
2019-02-27T14:02:16.402Z,10.04
2019-02-27T14:03:50.483Z,10.07
2019-02-27T14:05:24.503Z,9.96
2019-02-27T14:06:59.333Z,9.97
2019-02-27T14:08:35.201Z,9.92
2019-02-27T14:10:10.741Z,9.88
2019-02-27T14:11:49.005Z,9.91
2019-02-27T14:13:25.018Z,9.95
2019-02-27T14:14:58.642Z,9.90
2019-02-27T14:16:34.723Z,9.74
2019-02-27T14:18:06.745Z,9.82
2019-02-27T14:19:39.664Z,9.89
2019-02-27T14:21:14.852Z,9.90
2019-02-27T14:22:46.954Z,9.93
2019-02-27T14:24:21.361Z,9.93
2019-02-27T14:25:54.189Z,9.94
2019-02-27T14:27:29.353Z,9.96
2019-02-27T14:29:04.205Z,10.00
2019-02-27T14:30:41.703Z,9.94
2019-02-27T14:32:15.902Z,9.96
2019-02-27T14:33:51.173Z,9.89
2019-02-27T14:35:24.011Z,9.95
2019-02-27T14:36:58.015Z,9.92
2019-02-27T14:38:32.134Z,9.92
2019-02-27T14:40:06.212Z,10.00
2019-02-27T14:41:40.234Z,10.00
2019-02-27T14:43:13.199Z,10.02
2019-02-27T14:44:46.942Z,10.02
2019-02-27T14:46:22.231Z,9.90
2019-02-27T14:47:56.585Z,9.90
2019-02-27T14:49:30.277Z,9.79
2019-02-27T14:51:07.321Z,9.77
2019-02-27T14:52:39.089Z,9.72
2019-02-27T14:54:12.169Z,9.74
2019-02-27T14:55:46.386Z,9.56
2019-02-27T14:57:20.652Z,9.50
2019-02-27T14:58:56.595Z,9.45
2019-02-27T15:00:31.550Z,9.42
2019-02-27T15:02:05.777Z,9.39
2019-02-27T15:03:39.777Z,9.38
2019-02-27T15:05:14.104Z,9.44
2019-02-27T15:06:50.358Z,9.36
2019-02-27T15:08:25.171Z,9.34
2019-02-27T15:09:57.960Z,9.35
2019-02-27T15:11:32.371Z,9.34
2019-02-27T15:13:06.415Z,9.30
2019-02-27T15:14:40.153Z,9.29
2019-02-27T15:16:15.422Z,9.25
2019-02-27T15:17:48.100Z,9.27
2019-02-27T15:19:21.105Z,9.27
2019-02-27T15:20:56.302Z,9.20
2019-02-27T15:22:30.302Z,9.17
2019-02-27T15:24:06.355Z,9.11
2019-02-27T15:25:43.086Z,9.09
2019-02-27T15:27:15.092Z,9.10
2019-02-27T15:28:49.143Z,9.14
2019-02-27T15:30:23.832Z,9.06
2019-02-27T15:31:57.913Z,9.06
2019-02-27T15:33:31.889Z,9.06
2019-02-27T15:35:07.047Z,9.08
2019-02-27T15:36:41.261Z,9.02
2019-02-27T15:38:15.576Z,9.06
2019-02-27T15:39:52.003Z,9.07
2019-02-27T15:41:24.747Z,9.08
2019-02-27T15:42:58.518Z,9.09
2019-02-27T15:44:34.567Z,9.09
2019-02-27T15:46:06.717Z,9.06
2019-02-27T15:47:41.503Z,9.05
2019-02-27T15:49:15.908Z,8.98
2019-02-27T15:50:49.659Z,8.95
2019-02-27T15:52:23.864Z,8.91
2019-02-27T15:53:57.952Z,8.89
2019-02-27T15:55:35.097Z,8.89
2019-02-27T15:57:07.822Z,8.89
2019-02-27T15:58:41.931Z,8.85
2019-02-27T16:00:18.475Z,8.81
2019-02-27T16:01:50.346Z,8.80
2019-02-27T16:03:24.470Z,8.79
2019-02-27T16:04:58.263Z,8.76
2019-02-27T16:06:32.290Z,8.70
2019-02-27T16:08:06.892Z,8.63
2019-02-27T16:09:41.601Z,8.59
2019-02-27T16:11:16.545Z,8.56
2019-02-27T16:12:49.818Z,8.49
2019-02-27T16:14:24.537Z,8.51
2019-02-27T16:15:58.643Z,8.48
2019-02-27T16:17:32.443Z,8.41
2019-02-27T16:19:07.987Z,8.35
2019-02-27T16:20:41.687Z,8.38
2019-02-27T16:22:16.600Z,8.39
2019-02-27T16:23:50.614Z,8.35
2019-02-27T16:25:25.721Z,8.34
2019-02-27T16:27:01.331Z,8.31
2019-02-27T16:28:34.095Z,8.29
2019-02-27T16:30:09.706Z,8.21
2019-02-27T16:31:43.856Z,8.22
2019-02-27T16:33:23.523Z,8.14
2019-02-27T16:34:52.513Z,8.10
2019-02-27T16:36:35.767Z,8.11
2019-02-27T16:38:01.010Z,8.03
2019-02-27T16:39:41.018Z,8.04
2019-02-27T16:41:09.897Z,8.02
2019-02-27T16:42:45.131Z,8.02
2019-02-27T16:44:22.049Z,8.00
2019-02-27T16:45:53.751Z,7.98
2019-02-27T16:47:29.595Z,7.95
2019-02-27T16:49:04.110Z,7.89
2019-02-27T16:50:40.242Z,7.87
2019-02-27T16:52:14.273Z,7.81
2019-02-27T16:53:47.182Z,7.76
2019-02-27T16:55:22.366Z,7.72
2019-02-27T16:56:57.957Z,7.65
2019-02-27T16:58:32.957Z,7.62
2019-02-27T17:00:04.586Z,7.57
2019-02-27T17:01:38.882Z,7.55
2019-02-27T17:03:14.047Z,7.50
2019-02-27T17:04:48.662Z,7.41
2019-02-27T17:06:22.847Z,7.38
2019-02-27T17:08:00.217Z,7.34
2019-02-27T17:09:33.546Z,7.31
2019-02-27T17:11:07.221Z,7.29
2019-02-27T17:12:41.561Z,7.26
2019-02-27T17:14:15.070Z,7.23
2019-02-27T17:15:49.240Z,7.21
2019-02-27T17:17:23.244Z,7.21
2019-02-27T17:18:59.142Z,7.19
2019-02-27T17:20:34.230Z,7.20
2019-02-27T17:22:08.167Z,7.22
2019-02-27T17:23:45.410Z,7.20
2019-02-27T17:25:16.451Z,7.22
2019-02-27T17:26:51.536Z,7.25
2019-02-27T17:28:25.393Z,7.26
2019-02-27T17:30:00.069Z,7.24
2019-02-27T17:31:33.507Z,7.24
2019-02-27T17:33:08.414Z,7.22
2019-02-27T17:34:42.434Z,7.20
2019-02-27T17:36:18.191Z,7.24
2019-02-27T17:37:52.477Z,7.25
2019-02-27T17:39:29.869Z,7.24
2019-02-27T17:41:00.895Z,7.25
2019-02-27T17:42:34.813Z,7.29
2019-02-27T17:44:09.125Z,7.30
2019-02-27T17:46:14.362Z,7.33
2019-02-27T17:47:49.018Z,7.34
2019-02-27T17:49:25.387Z,7.30
2019-02-27T17:50:57.319Z,7.30
2019-02-27T17:52:32.311Z,7.30
2019-02-27T17:54:06.130Z,7.29
2019-02-27T17:55:41.748Z,7.26
2019-02-27T17:57:13.910Z,7.23
2019-02-27T17:58:48.037Z,7.23
2019-02-27T18:00:23.987Z,7.22
2019-02-27T18:01:58.754Z,7.20
2019-02-27T18:03:32.421Z,7.19
2019-02-27T18:05:09.312Z,7.19
2019-02-27T18:06:44.328Z,7.20
2019-02-27T18:08:17.297Z,7.19
2019-02-27T18:09:51.737Z,7.20
2019-02-27T18:11:26.701Z,7.18
2019-02-27T18:13:01.425Z,7.16
2019-02-27T18:14:35.767Z,7.16
2019-02-27T18:16:09.900Z,7.12
2019-02-27T18:17:42.924Z,7.10
2019-02-27T18:19:17.259Z,7.12
2019-02-27T18:20:50.860Z,7.11
2019-02-27T18:22:24.746Z,7.12
2019-02-27T18:23:58.892Z,7.09
2019-02-27T18:25:32.776Z,7.12
2019-02-27T18:27:07.568Z,7.11
2019-02-27T18:28:41.706Z,7.10
2019-02-27T18:30:18.954Z,7.14
2019-02-27T18:31:50.611Z,7.14
2019-02-27T18:33:24.743Z,7.11
2019-02-27T18:34:58.953Z,7.17
2019-02-27T18:36:42.411Z,7.19
2019-02-27T18:38:07.574Z,7.16
2019-02-27T18:39:41.566Z,7.15
2019-02-27T18:41:15.693Z,7.16
2019-02-27T18:42:55.355Z,7.17
2019-02-27T18:44:24.204Z,7.13
2019-02-27T18:45:58.105Z,7.15
2019-02-27T18:47:32.104Z,7.18
2019-02-27T18:49:05.425Z,7.13
2019-02-27T18:50:39.513Z,7.15
2019-02-27T18:52:21.271Z,7.12
2019-02-27T18:53:48.591Z,7.11
2019-02-27T18:55:22.040Z,7.14
2019-02-27T18:56:56.136Z,7.16
2019-02-27T18:58:31.791Z,7.11
2019-02-27T19:00:06.623Z,7.11
2019-02-27T19:01:41.401Z,7.15
2019-02-27T19:03:16.180Z,7.17
2019-02-27T19:04:50.786Z,7.18
2019-02-27T19:06:24.886Z,7.16
2019-02-27T19:07:59.927Z,7.18
2019-02-27T19:09:34.581Z,7.21
2019-02-27T19:11:08.645Z,7.19
2019-02-27T19:12:43.780Z,7.22
2019-02-27T19:14:19.017Z,7.20
2019-02-27T19:15:53.021Z,7.20
2019-02-27T19:17:31.407Z,7.20
2019-02-27T19:19:01.326Z,7.20
2019-02-27T19:20:37.888Z,7.22
2019-02-27T19:22:11.710Z,7.19
2019-02-27T19:23:44.894Z,7.21
2019-02-27T19:25:18.760Z,7.23
2019-02-27T19:26:53.129Z,7.25
2019-02-27T19:28:27.918Z,7.29
2019-02-27T19:30:06.364Z,7.29
2019-02-27T19:31:36.943Z,7.29
2019-02-27T19:33:11.702Z,7.30
2019-02-27T19:34:47.997Z,7.28
2019-02-27T19:36:21.524Z,7.24
2019-02-27T19:37:56.202Z,7.27
2019-02-27T19:39:30.338Z,7.27
2019-02-27T19:41:04.743Z,7.28
2019-02-27T19:42:38.158Z,7.25
2019-02-27T19:44:11.337Z,7.27
2019-02-27T19:45:45.351Z,7.24
2019-02-27T19:47:19.385Z,7.25
2019-02-27T19:48:53.559Z,7.25
2019-02-27T19:50:28.973Z,7.26
2019-02-27T19:52:03.942Z,7.26
2019-02-27T19:53:39.569Z,7.26
2019-02-27T19:55:12.140Z,7.24
2019-02-27T19:56:47.897Z,7.24
2019-02-27T19:58:21.892Z,7.23
2019-02-27T19:59:58.825Z,7.23
2019-02-27T20:01:30.310Z,7.22
2019-02-27T20:03:04.830Z,7.23
2019-02-27T20:04:42.859Z,7.24
2019-02-27T20:06:13.051Z,7.22
2019-02-27T20:07:46.945Z,7.23
2019-02-27T20:09:21.908Z,7.24
2019-02-27T20:10:55.858Z,7.25
2019-02-27T20:12:30.167Z,7.26
2019-02-27T20:14:07.068Z,7.26
2019-02-27T20:15:45.807Z,7.26
2019-02-27T20:17:19.392Z,7.23
2019-02-27T20:18:55.292Z,7.21
2019-02-27T20:20:30.986Z,7.20
2019-02-27T20:22:05.379Z,7.17
2019-02-27T20:23:39.470Z,7.14
2019-02-27T20:25:14.472Z,7.16
2019-02-27T20:26:51.461Z,7.19
2019-02-27T20:28:25.104Z,7.21
2019-02-27T20:30:00.947Z,7.23
2019-02-27T20:31:35.579Z,7.23
2019-02-27T20:33:09.765Z,7.21
2019-02-27T20:34:45.944Z,7.21
2019-02-27T20:36:18.278Z,7.22
2019-02-27T20:37:52.491Z,7.21
2019-02-27T20:39:27.219Z,7.19
2019-02-27T20:41:01.405Z,7.18
2019-02-27T20:42:36.248Z,7.19
2019-02-27T20:44:10.950Z,7.19
2019-02-27T20:45:45.995Z,7.17
2019-02-27T20:47:21.835Z,7.18
2019-02-27T20:48:56.011Z,7.18
2019-02-27T20:50:34.999Z,7.19
2019-02-27T20:52:06.933Z,7.18
2019-02-27T20:53:41.006Z,7.17
2019-02-27T20:55:15.455Z,7.18
2019-02-27T20:56:55.538Z,7.18
2019-02-27T20:58:24.588Z,7.16
2019-02-27T21:00:02.167Z,7.14
2019-02-27T21:01:33.909Z,7.13
2019-02-27T21:03:08.525Z,7.13
2019-02-27T21:04:42.651Z,7.13
2019-02-27T21:06:17.066Z,7.15
2019-02-27T21:07:51.974Z,7.15
2019-02-27T21:09:26.003Z,7.14
2019-02-27T21:11:00.005Z,7.14
2019-02-27T21:12:33.904Z,7.13
2019-02-27T21:14:07.792Z,7.11
2019-02-27T21:15:41.814Z,7.11
2019-02-27T21:17:16.473Z,7.11
2019-02-27T21:18:49.402Z,7.09
2019-02-27T21:20:24.627Z,7.07
2019-02-27T21:21:58.757Z,7.07
2019-02-27T21:23:32.923Z,7.05
2019-02-27T21:25:06.702Z,7.05
2019-02-27T21:26:40.478Z,7.03
2019-02-27T21:28:20.849Z,7.03
2019-02-27T21:29:48.879Z,7.02
2019-02-27T21:31:26.640Z,7.00
2019-02-27T21:32:58.159Z,7.00
2019-02-27T21:34:32.325Z,6.98
2019-02-27T21:36:06.414Z,6.97